sensor_id;sensor_type;location;lat;lon;timestamp;pressure;altitude;pressure_sealevel;temperature;humidity
72721;BME280;60835;50.974;10.322;2023-05-29T00:00:41;98172.06;;;10.72;100.00
72721;BME280;60835;50.974;10.322;2023-05-29T00:03:09;98175.38;;;10.66;100.00
72721;BME280;60835;50.974;10.322;2023-05-29T00:05:35;98157.69;;;10.25;100.00
72721;BME280;60835;50.974;10.322;2023-05-29T00:08:02;98224.53;;;10.35;100.00
72721;BME280;60835;50.974;10.322;2023-05-29T00:10:29;98251.41;;;10.30;100.00
72721;BME280;60835;50.974;10.322;2023-05-29T00:12:57;98301.50;;;10.32;100.00
72721;BME280;60835;50.974;10.322;2023-05-29T00:15:24;98286.94;;;10.28;100.00
72721;BME280;60835;50.974;10.322;2023-05-29T00:17:51;98308.34;;;10.43;100.00
72721;BME280;60835;50.974;10.322;2023-05-29T00:20:18;98288.59;;;10.29;100.00
72721;BME280;60835;50.974;10.322;2023-05-29T00:22:44;98301.16;;;10.27;100.00
72721;BME280;60835;50.974;10.322;2023-05-29T00:25:11;98312.75;;;10.34;100.00
72721;BME280;60835;50.974;10.322;2023-05-29T00:27:38;98291.91;;;10.31;100.00
72721;BME280;60835;50.974;10.322;2023-05-29T00:30:05;98258.44;;;10.14;100.00
72721;BME280;60835;50.974;10.322;2023-05-29T00:32:32;98255.00;;;10.04;100.00
72721;BME280;60835;50.974;10.322;2023-05-29T00:34:59;98303.94;;;10.08;100.00
72721;BME280;60835;50.974;10.322;2023-05-29T00:37:25;98318.91;;;10.17;100.00
72721;BME280;60835;50.974;10.322;2023-05-29T00:39:52;98324.78;;;10.11;100.00
72721;BME280;60835;50.974;10.322;2023-05-29T00:42:18;98320.94;;;10.05;100.00
72721;BME280;60835;50.974;10.322;2023-05-29T00:44:45;98336.66;;;10.07;100.00
72721;BME280;60835;50.974;10.322;2023-05-29T00:47:12;98337.94;;;10.03;100.00
72721;BME280;60835;50.974;10.322;2023-05-29T00:49:39;98330.16;;;10.01;100.00
72721;BME280;60835;50.974;10.322;2023-05-29T00:52:07;98292.69;;;9.62;100.00
72721;BME280;60835;50.974;10.322;2023-05-29T00:54:36;98333.19;;;9.89;100.00
72721;BME280;60835;50.974;10.322;2023-05-29T00:57:04;98303.84;;;9.56;100.00
72721;BME280;60835;50.974;10.322;2023-05-29T00:59:32;98334.66;;;9.65;100.00
72721;BME280;60835;50.974;10.322;2023-05-29T01:02:01;98315.16;;;9.66;100.00
72721;BME280;60835;50.974;10.322;2023-05-29T01:04:29;98301.13;;;9.48;100.00
72721;BME280;60835;50.974;10.322;2023-05-29T01:06:55;98293.13;;;9.40;100.00
72721;BME280;60835;50.974;10.322;2023-05-29T01:09:24;98319.19;;;9.53;100.00
72721;BME280;60835;50.974;10.322;2023-05-29T01:12:25;98316.06;;;9.57;100.00
72721;BME280;60835;50.974;10.322;2023-05-29T01:18:05;98302.50;;;9.52;100.00
72721;BME280;60835;50.974;10.322;2023-05-29T01:20:52;98294.72;;;9.51;100.00
72721;BME280;60835;50.974;10.322;2023-05-29T01:23:51;98292.63;;;9.37;100.00
72721;BME280;60835;50.974;10.322;2023-05-29T01:26:35;98295.47;;;9.43;100.00
72721;BME280;60835;50.974;10.322;2023-05-29T01:29:07;98291.84;;;9.44;100.00
72721;BME280;60835;50.974;10.322;2023-05-29T01:31:34;98276.81;;;9.27;100.00
72721;BME280;60835;50.974;10.322;2023-05-29T01:34:01;98280.63;;;9.42;100.00
72721;BME280;60835;50.974;10.322;2023-05-29T01:36:29;98282.50;;;9.50;100.00
72721;BME280;60835;50.974;10.322;2023-05-29T01:38:57;98237.31;;;9.35;100.00
72721;BME280;60835;50.974;10.322;2023-05-29T01:41:24;98245.34;;;9.16;100.00
72721;BME280;60835;50.974;10.322;2023-05-29T01:43:52;98294.50;;;9.44;100.00
72721;BME280;60835;50.974;10.322;2023-05-29T01:46:20;98305.50;;;9.57;100.00
72721;BME280;60835;50.974;10.322;2023-05-29T01:48:48;98287.84;;;9.40;100.00
72721;BME280;60835;50.974;10.322;2023-05-29T01:51:15;98303.38;;;9.43;100.00
72721;BME280;60835;50.974;10.322;2023-05-29T01:53:42;98321.31;;;9.22;100.00
72721;BME280;60835;50.974;10.322;2023-05-29T01:56:10;98305.56;;;9.12;100.00
72721;BME280;60835;50.974;10.322;2023-05-29T01:58:38;98293.28;;;9.21;100.00
72721;BME280;60835;50.974;10.322;2023-05-29T02:01:06;98287.81;;;9.05;100.00
72721;BME280;60835;50.974;10.322;2023-05-29T02:03:35;98286.72;;;8.98;100.00
72721;BME280;60835;50.974;10.322;2023-05-29T02:06:01;98305.72;;;8.84;100.00
72721;BME280;60835;50.974;10.322;2023-05-29T02:08:28;98289.94;;;9.19;100.00
72721;BME280;60835;50.974;10.322;2023-05-29T02:10:55;98292.44;;;9.21;100.00
72721;BME280;60835;50.974;10.322;2023-05-29T02:13:22;98305.47;;;9.22;100.00
72721;BME280;60835;50.974;10.322;2023-05-29T02:15:48;98312.38;;;9.05;100.00
72721;BME280;60835;50.974;10.322;2023-05-29T02:18:15;98296.97;;;9.10;100.00
72721;BME280;60835;50.974;10.322;2023-05-29T02:20:43;98291.81;;;9.09;100.00
72721;BME280;60835;50.974;10.322;2023-05-29T02:23:10;98307.41;;;9.02;100.00
72721;BME280;60835;50.974;10.322;2023-05-29T02:25:37;98303.56;;;8.97;100.00
72721;BME280;60835;50.974;10.322;2023-05-29T02:28:03;98311.78;;;8.84;100.00
72721;BME280;60835;50.974;10.322;2023-05-29T02:30:30;98293.78;;;8.80;100.00
72721;BME280;60835;50.974;10.322;2023-05-29T02:32:57;98287.16;;;8.76;100.00
72721;BME280;60835;50.974;10.322;2023-05-29T02:35:23;98270.53;;;8.66;100.00
72721;BME280;60835;50.974;10.322;2023-05-29T02:37:50;98256.81;;;8.62;100.00
72721;BME280;60835;50.974;10.322;2023-05-29T02:40:19;98214.03;;;8.41;100.00
72721;BME280;60835;50.974;10.322;2023-05-29T02:42:46;98258.31;;;8.65;100.00
72721;BME280;60835;50.974;10.322;2023-05-29T02:45:13;98266.53;;;8.62;100.00
72721;BME280;60835;50.974;10.322;2023-05-29T02:47:39;98231.19;;;8.54;100.00
72721;BME280;60835;50.974;10.322;2023-05-29T02:50:06;98227.50;;;8.38;100.00
72721;BME280;60835;50.974;10.322;2023-05-29T02:52:33;98241.34;;;8.49;100.00
72721;BME280;60835;50.974;10.322;2023-05-29T02:54:59;98238.44;;;8.43;100.00
72721;BME280;60835;50.974;10.322;2023-05-29T02:57:26;98231.50;;;8.42;100.00
72721;BME280;60835;50.974;10.322;2023-05-29T02:59:52;98226.53;;;8.39;100.00
72721;BME280;60835;50.974;10.322;2023-05-29T03:02:19;98217.50;;;8.41;100.00
72721;BME280;60835;50.974;10.322;2023-05-29T03:04:46;98213.88;;;8.42;100.00
72721;BME280;60835;50.974;10.322;2023-05-29T03:07:14;98174.25;;;8.25;100.00
72721;BME280;60835;50.974;10.322;2023-05-29T03:09:41;98158.28;;;8.26;100.00
72721;BME280;60835;50.974;10.322;2023-05-29T03:12:07;98195.44;;;8.42;100.00
72721;BME280;60835;50.974;10.322;2023-05-29T03:14:34;98193.53;;;8.35;100.00
72721;BME280;60835;50.974;10.322;2023-05-29T03:17:04;98171.63;;;8.25;100.00
72721;BME280;60835;50.974;10.322;2023-05-29T03:19:32;98191.34;;;8.57;100.00
72721;BME280;60835;50.974;10.322;2023-05-29T03:21:59;98197.09;;;8.71;100.00
72721;BME280;60835;50.974;10.322;2023-05-29T03:24:27;98212.22;;;8.69;100.00
72721;BME280;60835;50.974;10.322;2023-05-29T03:26:53;98227.66;;;8.64;100.00
72721;BME280;60835;50.974;10.322;2023-05-29T03:29:20;98245.34;;;8.53;100.00
72721;BME280;60835;50.974;10.322;2023-05-29T03:31:46;98248.97;;;8.43;100.00
72721;BME280;60835;50.974;10.322;2023-05-29T03:34:13;98240.94;;;8.44;100.00
72721;BME280;60835;50.974;10.322;2023-05-29T03:36:40;98192.44;;;8.18;100.00
72721;BME280;60835;50.974;10.322;2023-05-29T03:39:06;98183.00;;;8.25;100.00
72721;BME280;60835;50.974;10.322;2023-05-29T03:41:33;98222.72;;;8.51;100.00
72721;BME280;60835;50.974;10.322;2023-05-29T03:43:59;98221.50;;;8.45;100.00
72721;BME280;60835;50.974;10.322;2023-05-29T03:46:26;98180.28;;;8.17;100.00
72721;BME280;60835;50.974;10.322;2023-05-29T03:48:54;98179.59;;;8.42;100.00
72721;BME280;60835;50.974;10.322;2023-05-29T03:51:20;98184.75;;;8.44;100.00
72721;BME280;60835;50.974;10.322;2023-05-29T03:53:47;98189.63;;;8.39;100.00
72721;BME280;60835;50.974;10.322;2023-05-29T03:56:14;98183.81;;;8.35;100.00
72721;BME280;60835;50.974;10.322;2023-05-29T03:58:41;98177.72;;;8.35;100.00
72721;BME280;60835;50.974;10.322;2023-05-29T04:01:08;98110.19;;;7.97;100.00
72721;BME280;60835;50.974;10.322;2023-05-29T04:03:35;98158.81;;;8.39;100.00
72721;BME280;60835;50.974;10.322;2023-05-29T04:06:02;98153.25;;;8.42;100.00
72721;BME280;60835;50.974;10.322;2023-05-29T04:08:29;98139.50;;;8.48;100.00
72721;BME280;60835;50.974;10.322;2023-05-29T04:10:56;98137.44;;;8.42;100.00
72721;BME280;60835;50.974;10.322;2023-05-29T04:13:22;98108.44;;;8.42;100.00
72721;BME280;60835;50.974;10.322;2023-05-29T04:15:49;98124.63;;;8.47;100.00
72721;BME280;60835;50.974;10.322;2023-05-29T04:18:20;98167.25;;;8.70;100.00
72721;BME280;60835;50.974;10.322;2023-05-29T04:20:46;98192.50;;;8.73;100.00
72721;BME280;60835;50.974;10.322;2023-05-29T04:23:14;98197.28;;;8.60;100.00
72721;BME280;60835;50.974;10.322;2023-05-29T04:25:42;98143.59;;;8.33;100.00
72721;BME280;60835;50.974;10.322;2023-05-29T04:28:10;98084.63;;;8.07;100.00
72721;BME280;60835;50.974;10.322;2023-05-29T04:30:38;98173.44;;;8.79;100.00
72721;BME280;60835;50.974;10.322;2023-05-29T04:33:05;98175.31;;;9.04;100.00
72721;BME280;60835;50.974;10.322;2023-05-29T04:35:32;98189.94;;;8.81;100.00
72721;BME280;60835;50.974;10.322;2023-05-29T04:37:58;98179.56;;;8.97;100.00
72721;BME280;60835;50.974;10.322;2023-05-29T04:40:25;98181.56;;;9.03;100.00
72721;BME280;60835;50.974;10.322;2023-05-29T04:42:51;98185.94;;;9.12;100.00
72721;BME280;60835;50.974;10.322;2023-05-29T04:45:20;98181.34;;;9.14;100.00
72721;BME280;60835;50.974;10.322;2023-05-29T04:47:47;98206.00;;;9.40;100.00
72721;BME280;60835;50.974;10.322;2023-05-29T04:50:14;98266.13;;;9.46;100.00
72721;BME280;60835;50.974;10.322;2023-05-29T04:52:41;98272.44;;;9.53;100.00
72721;BME280;60835;50.974;10.322;2023-05-29T04:55:08;98260.53;;;9.49;100.00
72721;BME280;60835;50.974;10.322;2023-05-29T04:57:36;98323.94;;;9.85;100.00
72721;BME280;60835;50.974;10.322;2023-05-29T05:00:03;98358.47;;;10.09;100.00
72721;BME280;60835;50.974;10.322;2023-05-29T05:02:34;98401.00;;;9.98;100.00
72721;BME280;60835;50.974;10.322;2023-05-29T05:05:01;98421.16;;;9.81;100.00
72721;BME280;60835;50.974;10.322;2023-05-29T05:07:28;98426.59;;;9.97;100.00
72721;BME280;60835;50.974;10.322;2023-05-29T05:09:54;98439.16;;;10.13;100.00
72721;BME280;60835;50.974;10.322;2023-05-29T05:12:21;98422.69;;;10.19;100.00
72721;BME280;60835;50.974;10.322;2023-05-29T05:14:47;98438.25;;;10.22;100.00
72721;BME280;60835;50.974;10.322;2023-05-29T05:17:14;98473.38;;;10.50;100.00
72721;BME280;60835;50.974;10.322;2023-05-29T05:19:40;98483.69;;;10.78;100.00
72721;BME280;60835;50.974;10.322;2023-05-29T05:22:09;98515.03;;;10.91;100.00
72721;BME280;60835;50.974;10.322;2023-05-29T05:24:36;98515.44;;;11.04;100.00
72721;BME280;60835;50.974;10.322;2023-05-29T05:27:03;98510.38;;;11.11;100.00
72721;BME280;60835;50.974;10.322;2023-05-29T05:29:30;98560.13;;;11.25;100.00
72721;BME280;60835;50.974;10.322;2023-05-29T05:31:57;98555.88;;;11.32;100.00
72721;BME280;60835;50.974;10.322;2023-05-29T05:34:23;98567.91;;;11.52;100.00
72721;BME280;60835;50.974;10.322;2023-05-29T05:36:50;98556.69;;;11.58;100.00
72721;BME280;60835;50.974;10.322;2023-05-29T05:39:17;98582.72;;;11.88;100.00
72721;BME280;60835;50.974;10.322;2023-05-29T05:41:43;98581.91;;;11.96;100.00
72721;BME280;60835;50.974;10.322;2023-05-29T05:44:10;98552.47;;;12.07;100.00
72721;BME280;60835;50.974;10.322;2023-05-29T05:46:36;98499.69;;;11.88;100.00
72721;BME280;60835;50.974;10.322;2023-05-29T05:49:03;98601.88;;;12.82;100.00
72721;BME280;60835;50.974;10.322;2023-05-29T05:51:29;98586.31;;;13.27;100.00
72721;BME280;60835;50.974;10.322;2023-05-29T05:53:57;98554.09;;;14.32;100.00
72721;BME280;60835;50.974;10.322;2023-05-29T05:56:23;98481.28;;;14.71;100.00
72721;BME280;60835;50.974;10.322;2023-05-29T05:58:52;98317.94;;;14.26;100.00
72721;BME280;60835;50.974;10.322;2023-05-29T06:01:18;98317.56;;;15.10;100.00
72721;BME280;60835;50.974;10.322;2023-05-29T06:03:45;98244.31;;;15.21;100.00
72721;BME280;60835;50.974;10.322;2023-05-29T06:06:12;98188.69;;;16.37;100.00
72721;BME280;60835;50.974;10.322;2023-05-29T06:08:38;98127.94;;;16.86;100.00
72721;BME280;60835;50.974;10.322;2023-05-29T06:11:06;98088.94;;;16.51;100.00
72721;BME280;60835;50.974;10.322;2023-05-29T06:13:33;98106.97;;;16.42;100.00
72721;BME280;60835;50.974;10.322;2023-05-29T06:15:59;98046.81;;;18.23;100.00
72721;BME280;60835;50.974;10.322;2023-05-29T06:18:26;98000.72;;;17.25;100.00
72721;BME280;60835;50.974;10.322;2023-05-29T06:20:53;98050.06;;;17.68;100.00
72721;BME280;60835;50.974;10.322;2023-05-29T06:23:20;98033.59;;;19.04;100.00
72721;BME280;60835;50.974;10.322;2023-05-29T06:25:46;98080.81;;;18.74;100.00
72721;BME280;60835;50.974;10.322;2023-05-29T06:28:13;98222.81;;;19.69;100.00
72721;BME280;60835;50.974;10.322;2023-05-29T06:30:39;98449.34;;;19.62;100.00
72721;BME280;60835;50.974;10.322;2023-05-29T06:33:06;98875.66;;;19.58;100.00
72721;BME280;60835;50.974;10.322;2023-05-29T06:35:33;99029.91;;;18.85;100.00
72721;BME280;60835;50.974;10.322;2023-05-29T06:37:59;99149.63;;;20.53;100.00
72721;BME280;60835;50.974;10.322;2023-05-29T06:40:26;99202.84;;;18.96;100.00
72721;BME280;60835;50.974;10.322;2023-05-29T06:42:52;99243.66;;;19.91;100.00
72721;BME280;60835;50.974;10.322;2023-05-29T06:45:19;99300.03;;;19.91;100.00
72721;BME280;60835;50.974;10.322;2023-05-29T06:47:46;99314.84;;;18.79;100.00
72721;BME280;60835;50.974;10.322;2023-05-29T06:50:13;99324.13;;;19.27;100.00
72721;BME280;60835;50.974;10.322;2023-05-29T06:52:40;99349.03;;;19.72;100.00
72721;BME280;60835;50.974;10.322;2023-05-29T06:55:07;99319.00;;;19.83;100.00
72721;BME280;60835;50.974;10.322;2023-05-29T06:57:33;99357.88;;;20.29;100.00
72721;BME280;60835;50.974;10.322;2023-05-29T07:00:00;99357.78;;;21.40;100.00
72721;BME280;60835;50.974;10.322;2023-05-29T07:02:26;99445.38;;;20.17;100.00
72721;BME280;60835;50.974;10.322;2023-05-29T07:04:53;99433.28;;;20.98;100.00
72721;BME280;60835;50.974;10.322;2023-05-29T07:07:19;99385.84;;;20.35;100.00
72721;BME280;60835;50.974;10.322;2023-05-29T07:09:46;99448.31;;;21.89;100.00
72721;BME280;60835;50.974;10.322;2023-05-29T07:12:12;99473.72;;;21.79;100.00
72721;BME280;60835;50.974;10.322;2023-05-29T07:14:39;99386.81;;;22.25;100.00
72721;BME280;60835;50.974;10.322;2023-05-29T07:17:06;99478.25;;;22.20;100.00
72721;BME280;60835;50.974;10.322;2023-05-29T07:19:33;99465.66;;;21.79;100.00
72721;BME280;60835;50.974;10.322;2023-05-29T07:22:00;99458.34;;;22.08;100.00
72721;BME280;60835;50.974;10.322;2023-05-29T07:24:27;99482.34;;;20.72;100.00
72721;BME280;60835;50.974;10.322;2023-05-29T07:26:53;99470.47;;;21.43;100.00
72721;BME280;60835;50.974;10.322;2023-05-29T07:29:22;99493.91;;;22.57;100.00
72721;BME280;60835;50.974;10.322;2023-05-29T07:31:52;99510.28;;;22.62;100.00
72721;BME280;60835;50.974;10.322;2023-05-29T07:34:19;99499.63;;;22.15;100.00
72721;BME280;60835;50.974;10.322;2023-05-29T07:37:03;99491.59;;;21.46;100.00
72721;BME280;60835;50.974;10.322;2023-05-29T07:39:31;99483.88;;;21.71;100.00
72721;BME280;60835;50.974;10.322;2023-05-29T07:41:59;99483.38;;;21.54;100.00
72721;BME280;60835;50.974;10.322;2023-05-29T07:44:25;99506.00;;;23.00;100.00
72721;BME280;60835;50.974;10.322;2023-05-29T07:46:52;99482.81;;;22.13;100.00
72721;BME280;60835;50.974;10.322;2023-05-29T07:49:22;99503.06;;;22.63;100.00
72721;BME280;60835;50.974;10.322;2023-05-29T07:51:48;99488.03;;;21.73;100.00
72721;BME280;60835;50.974;10.322;2023-05-29T07:54:15;99491.47;;;22.02;100.00
72721;BME280;60835;50.974;10.322;2023-05-29T07:56:44;99513.16;;;22.34;100.00
72721;BME280;60835;50.974;10.322;2023-05-29T07:59:13;99486.78;;;22.30;100.00
72721;BME280;60835;50.974;10.322;2023-05-29T08:01:41;99531.50;;;23.31;100.00
72721;BME280;60835;50.974;10.322;2023-05-29T08:04:10;99527.28;;;23.81;100.00
72721;BME280;60835;50.974;10.322;2023-05-29T08:06:37;99500.38;;;23.48;100.00
72721;BME280;60835;50.974;10.322;2023-05-29T08:09:03;99545.88;;;23.44;100.00
72721;BME280;60835;50.974;10.322;2023-05-29T08:11:31;99529.22;;;22.02;100.00
72721;BME280;60835;50.974;10.322;2023-05-29T08:13:58;99538.09;;;23.81;100.00
72721;BME280;60835;50.974;10.322;2023-05-29T08:16:25;99532.91;;;23.79;100.00
72721;BME280;60835;50.974;10.322;2023-05-29T08:18:53;99556.34;;;24.11;100.00
72721;BME280;60835;50.974;10.322;2023-05-29T08:21:20;99544.00;;;23.19;100.00
72721;BME280;60835;50.974;10.322;2023-05-29T08:23:46;99540.88;;;23.35;100.00
72721;BME280;60835;50.974;10.322;2023-05-29T08:26:17;99553.81;;;24.16;100.00
72721;BME280;60835;50.974;10.322;2023-05-29T08:28:44;99534.81;;;23.72;100.00
72721;BME280;60835;50.974;10.322;2023-05-29T08:31:11;99518.75;;;20.96;100.00
72721;BME280;60835;50.974;10.322;2023-05-29T08:33:38;99541.91;;;23.47;100.00
72721;BME280;60835;50.974;10.322;2023-05-29T08:36:04;99508.16;;;23.82;100.00
72721;BME280;60835;50.974;10.322;2023-05-29T08:38:31;99548.06;;;24.82;100.00
72721;BME280;60835;50.974;10.322;2023-05-29T08:40:58;99549.25;;;24.17;100.00
72721;BME280;60835;50.974;10.322;2023-05-29T08:43:30;99541.34;;;24.53;100.00
72721;BME280;60835;50.974;10.322;2023-05-29T08:46:02;99532.47;;;24.40;100.00
72721;BME280;60835;50.974;10.322;2023-05-29T08:48:30;99542.50;;;25.02;100.00
72721;BME280;60835;50.974;10.322;2023-05-29T08:50:58;99541.09;;;22.87;100.00
72721;BME280;60835;50.974;10.322;2023-05-29T08:53:27;99542.75;;;23.41;100.00
72721;BME280;60835;50.974;10.322;2023-05-29T08:55:54;99544.22;;;23.11;100.00
72721;BME280;60835;50.974;10.322;2023-05-29T08:58:22;99541.28;;;23.58;100.00
72721;BME280;60835;50.974;10.322;2023-05-29T09:00:50;99555.69;;;24.16;100.00
72721;BME280;60835;50.974;10.322;2023-05-29T09:03:18;99547.31;;;25.24;100.00
72721;BME280;60835;50.974;10.322;2023-05-29T09:05:47;99536.44;;;24.75;100.00
72721;BME280;60835;50.974;10.322;2023-05-29T09:08:35;99555.41;;;25.74;100.00
72721;BME280;60835;50.974;10.322;2023-05-29T09:11:02;99525.91;;;22.06;100.00
72721;BME280;60835;50.974;10.322;2023-05-29T09:13:28;99557.84;;;24.45;100.00
72721;BME280;60835;50.974;10.322;2023-05-29T09:15:59;99542.44;;;24.46;100.00
72721;BME280;60835;50.974;10.322;2023-05-29T09:18:31;99534.28;;;21.49;100.00
72721;BME280;60835;50.974;10.322;2023-05-29T09:20:58;99541.44;;;23.70;100.00
72721;BME280;60835;50.974;10.322;2023-05-29T09:23:28;99526.34;;;24.19;100.00
72721;BME280;60835;50.974;10.322;2023-05-29T09:25:55;99521.97;;;22.09;100.00
72721;BME280;60835;50.974;10.322;2023-05-29T09:28:21;99552.69;;;23.14;100.00
72721;BME280;60835;50.974;10.322;2023-05-29T09:30:50;99552.47;;;22.76;100.00
72721;BME280;60835;50.974;10.322;2023-05-29T09:33:17;99526.03;;;23.90;100.00
72721;BME280;60835;50.974;10.322;2023-05-29T09:35:46;99563.59;;;24.55;100.00
72721;BME280;60835;50.974;10.322;2023-05-29T09:38:15;99552.94;;;24.22;100.00
72721;BME280;60835;50.974;10.322;2023-05-29T09:41:03;99580.13;;;24.41;100.00
72721;BME280;60835;50.974;10.322;2023-05-29T09:43:31;99570.28;;;24.53;100.00
72721;BME280;60835;50.974;10.322;2023-05-29T09:46:00;99579.47;;;25.14;100.00
72721;BME280;60835;50.974;10.322;2023-05-29T09:48:29;99560.16;;;22.66;100.00
72721;BME280;60835;50.974;10.322;2023-05-29T09:51:02;99499.97;;;22.92;100.00
72721;BME280;60835;50.974;10.322;2023-05-29T09:53:29;99563.38;;;25.87;100.00
72721;BME280;60835;50.974;10.322;2023-05-29T09:55:56;99565.59;;;23.12;100.00
72721;BME280;60835;50.974;10.322;2023-05-29T09:58:23;99534.84;;;22.93;100.00
72721;BME280;60835;50.974;10.322;2023-05-29T10:00:51;99559.03;;;27.00;100.00
72721;BME280;60835;50.974;10.322;2023-05-29T10:03:19;99524.31;;;26.42;100.00
72721;BME280;60835;50.974;10.322;2023-05-29T10:05:50;99559.69;;;25.38;100.00
72721;BME280;60835;50.974;10.322;2023-05-29T10:08:18;99560.19;;;27.45;100.00
72721;BME280;60835;50.974;10.322;2023-05-29T10:10:49;99564.22;;;24.95;100.00
72721;BME280;60835;50.974;10.322;2023-05-29T10:13:18;99530.47;;;24.60;100.00
72721;BME280;60835;50.974;10.322;2023-05-29T10:15:49;99526.00;;;25.53;100.00
72721;BME280;60835;50.974;10.322;2023-05-29T10:18:26;99552.81;;;26.51;100.00
72721;BME280;60835;50.974;10.322;2023-05-29T10:20:56;99551.28;;;24.97;100.00
72721;BME280;60835;50.974;10.322;2023-05-29T10:23:25;99550.69;;;25.20;100.00
72721;BME280;60835;50.974;10.322;2023-05-29T10:25:58;99553.63;;;24.87;100.00
72721;BME280;60835;50.974;10.322;2023-05-29T10:28:28;99543.78;;;25.49;100.00
72721;BME280;60835;50.974;10.322;2023-05-29T10:30:57;99543.06;;;25.78;100.00
72721;BME280;60835;50.974;10.322;2023-05-29T10:36:14;99552.66;;;25.56;100.00
72721;BME280;60835;50.974;10.322;2023-05-29T10:38:44;99534.75;;;27.74;100.00
72721;BME280;60835;50.974;10.322;2023-05-29T10:43:59;99535.84;;;26.86;100.00
72721;BME280;60835;50.974;10.322;2023-05-29T10:49:20;99528.16;;;28.78;100.00
72721;BME280;60835;50.974;10.322;2023-05-29T10:51:48;99551.03;;;27.28;100.00
72721;BME280;60835;50.974;10.322;2023-05-29T10:54:15;99552.94;;;24.60;100.00
72721;BME280;60835;50.974;10.322;2023-05-29T10:56:44;99536.72;;;24.92;100.00
72721;BME280;60835;50.974;10.322;2023-05-29T10:59:18;99537.94;;;26.24;100.00
72721;BME280;60835;50.974;10.322;2023-05-29T11:01:44;99546.31;;;25.43;100.00
72721;BME280;60835;50.974;10.322;2023-05-29T11:06:44;99504.50;;;25.15;100.00
72721;BME280;60835;50.974;10.322;2023-05-29T11:15:09;99528.56;;;26.68;100.00
72721;BME280;60835;50.974;10.322;2023-05-29T11:20:09;99534.00;;;26.68;100.00
72721;BME280;60835;50.974;10.322;2023-05-29T11:25:15;99533.69;;;27.64;100.00
72721;BME280;60835;50.974;10.322;2023-05-29T11:27:45;99527.03;;;27.25;100.00
72721;BME280;60835;50.974;10.322;2023-05-29T11:30:14;99483.69;;;28.89;100.00
72721;BME280;60835;50.974;10.322;2023-05-29T11:32:42;99528.44;;;25.79;100.00
72721;BME280;60835;50.974;10.322;2023-05-29T11:35:17;99532.16;;;24.92;100.00
72721;BME280;60835;50.974;10.322;2023-05-29T11:37:45;99518.59;;;24.61;100.00
72721;BME280;60835;50.974;10.322;2023-05-29T11:40:13;99518.16;;;26.95;100.00
72721;BME280;60835;50.974;10.322;2023-05-29T11:42:46;99483.06;;;25.31;100.00
72721;BME280;60835;50.974;10.322;2023-05-29T11:45:19;99513.81;;;24.94;100.00
72721;BME280;60835;50.974;10.322;2023-05-29T11:48:04;99523.34;;;25.89;100.00
72721;BME280;60835;50.974;10.322;2023-05-29T11:50:33;99514.72;;;23.42;100.00
72721;BME280;60835;50.974;10.322;2023-05-29T11:53:00;99513.91;;;23.99;100.00
72721;BME280;60835;50.974;10.322;2023-05-29T11:55:27;99501.94;;;24.64;100.00
72721;BME280;60835;50.974;10.322;2023-05-29T11:57:59;99509.13;;;24.83;100.00
72721;BME280;60835;50.974;10.322;2023-05-29T12:00:33;99508.47;;;24.12;100.00
72721;BME280;60835;50.974;10.322;2023-05-29T12:03:02;99505.59;;;24.83;100.00
72721;BME280;60835;50.974;10.322;2023-05-29T12:05:44;99469.94;;;25.10;100.00
72721;BME280;60835;50.974;10.322;2023-05-29T12:08:12;99451.47;;;24.07;100.00
72721;BME280;60835;50.974;10.322;2023-05-29T12:10:46;99480.75;;;25.10;100.00
72721;BME280;60835;50.974;10.322;2023-05-29T12:13:13;99487.41;;;24.90;100.00
72721;BME280;60835;50.974;10.322;2023-05-29T12:15:43;99452.47;;;24.57;100.00
72721;BME280;60835;50.974;10.322;2023-05-29T12:18:10;99483.00;;;24.64;100.00
72721;BME280;60835;50.974;10.322;2023-05-29T12:20:38;99490.41;;;25.06;100.00
72721;BME280;60835;50.974;10.322;2023-05-29T12:23:05;99487.34;;;24.65;100.00
72721;BME280;60835;50.974;10.322;2023-05-29T12:25:34;99497.41;;;24.89;100.00
72721;BME280;60835;50.974;10.322;2023-05-29T12:28:03;99486.69;;;25.43;100.00
72721;BME280;60835;50.974;10.322;2023-05-29T12:30:30;99498.41;;;24.63;100.00
72721;BME280;60835;50.974;10.322;2023-05-29T12:32:59;99461.06;;;26.30;100.00
72721;BME280;60835;50.974;10.322;2023-05-29T12:35:28;99500.56;;;25.11;100.00
72721;BME280;60835;50.974;10.322;2023-05-29T12:38:04;99483.44;;;24.92;100.00
72721;BME280;60835;50.974;10.322;2023-05-29T12:40:32;99480.69;;;24.67;100.00
72721;BME280;60835;50.974;10.322;2023-05-29T12:43:05;99486.50;;;26.47;100.00
72721;BME280;60835;50.974;10.322;2023-05-29T12:45:33;99477.84;;;28.53;100.00
72721;BME280;60835;50.974;10.322;2023-05-29T12:48:07;99495.28;;;25.95;100.00
72721;BME280;60835;50.974;10.322;2023-05-29T12:50:38;99461.31;;;25.38;100.00
72721;BME280;60835;50.974;10.322;2023-05-29T12:53:06;99502.16;;;25.36;100.00
72721;BME280;60835;50.974;10.322;2023-05-29T12:55:38;99419.84;;;25.19;100.00
72721;BME280;60835;50.974;10.322;2023-05-29T12:58:18;99505.97;;;26.08;100.00
72721;BME280;60835;50.974;10.322;2023-05-29T13:00:46;99495.00;;;25.67;100.00
72721;BME280;60835;50.974;10.322;2023-05-29T13:03:13;99501.59;;;24.54;100.00
72721;BME280;60835;50.974;10.322;2023-05-29T13:05:41;99495.75;;;25.74;100.00
72721;BME280;60835;50.974;10.322;2023-05-29T13:08:08;99502.03;;;24.75;100.00
72721;BME280;60835;50.974;10.322;2023-05-29T13:10:35;99505.56;;;24.13;100.00
72721;BME280;60835;50.974;10.322;2023-05-29T13:13:01;99505.75;;;24.56;100.00